Time;durP1;ratioP1;P1;durP2;ratioP2;P2;SDS_P1;SDS_P2;PMS_P1;PMS_P2;Temp;Humidity;BMP_temperature;BMP_pressure;BME280_temperature;BME280_humidity;BME280_pressure;Samples;Min_cycle;Max_cycle;Signal;HPM_P1;HPM_P2
2023/05/01 00:02:18;;;;;;;8.73;4.87;;;;;;;6.69;68.63;101233.69;4985779;28;20208;-68
2023/05/01 00:04:45;;;;;;;9.53;5.10;;;;;;;6.69;68.68;101231.03;4985010;28;20207;-68
2023/05/01 00:07:11;;;;;;;8.87;5.17;;;;;;;6.68;69.14;101225.81;4984960;28;20242;-68
2023/05/01 00:09:38;;;;;;;7.90;5.30;;;;;;;6.68;69.06;101223.16;4987473;28;20230;-68
2023/05/01 00:12:05;;;;;;;10.90;5.00;;;;;;;6.66;68.93;101223.22;4989922;28;20450;-69
2023/05/01 00:14:31;;;;;;;7.60;5.13;;;;;;;6.65;69.38;101220.63;4988911;28;20884;-68
2023/05/01 00:16:57;;;;;;;8.70;4.80;;;;;;;6.63;69.13;101223.34;4988077;28;20231;-71
2023/05/01 00:19:25;;;;;;;7.83;4.73;;;;;;;6.62;68.90;101221.63;4987317;28;20703;-68
2023/05/01 00:21:52;;;;;;;8.17;5.03;;;;;;;6.60;69.00;101216.41;4986574;28;20582;-69
2023/05/01 00:24:18;;;;;;;7.97;5.20;;;;;;;6.57;69.37;101213.00;4986314;28;20318;-68
2023/05/01 00:26:45;;;;;;;6.77;4.90;;;;;;;6.55;69.24;101201.59;4986235;28;20239;-69
2023/05/01 00:29:11;;;;;;;4.77;3.97;;;;;;;6.48;68.61;101205.38;4986417;28;20720;-69
2023/05/01 00:31:38;;;;;;;5.97;4.57;;;;;;;6.37;67.69;101202.28;4985744;28;20239;-69
2023/05/01 00:34:05;;;;;;;7.10;4.53;;;;;;;6.25;68.02;101199.19;4987301;28;20857;-69
2023/05/01 00:36:32;;;;;;;6.63;4.40;;;;;;;6.15;68.42;101200.44;4983793;28;20262;-69
2023/05/01 00:38:59;;;;;;;8.17;4.90;;;;;;;6.06;68.50;101199.91;4982857;28;20231;-68
2023/05/01 00:41:25;;;;;;;7.53;4.63;;;;;;;5.93;69.22;101191.53;4986745;28;20211;-69
2023/05/01 00:43:52;;;;;;;8.13;4.77;;;;;;;5.85;69.59;101196.22;4984348;28;20858;-69
2023/05/01 00:46:18;;;;;;;9.37;4.67;;;;;;;5.77;70.33;101187.69;4984496;28;20627;-71
2023/05/01 00:48:45;;;;;;;6.67;4.80;;;;;;;5.74;71.10;101182.50;4988685;28;20227;-71
2023/05/01 00:51:12;;;;;;;6.03;4.67;;;;;;;5.75;71.72;101189.50;4986835;28;20203;-71
2023/05/01 00:53:41;;;;;;;7.57;5.10;;;;;;;5.74;71.79;101177.22;4990807;28;20204;-71
2023/05/01 00:56:07;;;;;;;8.00;4.90;;;;;;;5.74;72.00;101182.50;4985323;28;20647;-71
2023/05/01 00:58:34;;;;;;;7.47;4.57;;;;;;;5.74;72.41;101183.34;4986452;28;20212;-68
2023/05/01 01:01:01;;;;;;;8.97;5.17;;;;;;;5.75;72.51;101181.56;4984271;28;20211;-68
2023/05/01 01:03:27;;;;;;;10.73;5.77;;;;;;;5.76;72.65;101191.22;4986652;28;20235;-68
2023/05/01 01:06:02;;;;;;;7.73;4.80;;;;;;;5.75;72.64;101178.94;4986224;28;20212;-69
2023/05/01 01:08:32;;;;;;;5.97;4.57;;;;;;;5.74;72.43;101174.56;4980900;28;20235;-68
2023/05/01 01:11:09;;;;;;;6.13;4.90;;;;;;;5.74;72.81;101183.34;4985218;28;20222;-69
2023/05/01 01:13:41;;;;;;;7.13;4.87;;;;;;;5.71;72.27;101178.19;4986285;28;20208;-68
2023/05/01 01:16:17;;;;;;;9.13;5.60;;;;;;;5.67;72.18;101176.56;4978965;28;20206;-68
2023/05/01 01:18:56;;;;;;;6.33;4.93;;;;;;;5.62;72.31;101180.28;4983984;28;20203;-71
2023/05/01 01:21:27;;;;;;;7.77;4.67;;;;;;;5.53;72.41;101168.28;4985340;28;20208;-68
2023/05/01 01:24:27;;;;;;;7.43;5.10;;;;;;;5.48;72.83;101157.84;4990779;28;20277;-69
2023/05/01 01:27:33;;;;;;;7.73;5.03;;;;;;;5.44;73.37;101164.16;4988508;28;20998;-68
2023/05/01 01:30:21;;;;;;;8.57;4.83;;;;;;;5.41;72.67;101156.31;4984691;28;20228;-71
2023/05/01 01:33:04;;;;;;;10.23;4.70;;;;;;;5.29;72.05;101148.81;4982399;28;20687;-71
2023/05/01 01:35:33;;;;;;;5.47;4.17;;;;;;;5.19;71.97;101148.28;4986746;28;20203;-69
2023/05/01 01:38:04;;;;;;;7.47;5.13;;;;;;;5.13;72.86;101153.75;4987016;28;20713;-70
2023/05/01 01:40:36;;;;;;;8.67;5.63;;;;;;;5.13;73.42;101142.34;4986775;28;20199;-71
2023/05/01 01:43:06;;;;;;;7.03;5.10;;;;;;;5.11;73.82;101134.47;4982314;28;20726;-69
2023/05/01 01:45:37;;;;;;;9.83;4.77;;;;;;;5.11;73.81;101142.38;4985662;28;21563;-70
2023/05/01 01:48:06;;;;;;;9.33;5.17;;;;;;;5.11;73.98;101141.50;4993069;28;20227;-70
2023/05/01 01:50:37;;;;;;;10.03;5.07;;;;;;;5.10;74.03;101135.38;4983305;28;20208;-69
2023/05/01 01:53:07;;;;;;;7.80;3.90;;;;;;;5.10;73.85;101126.59;4983597;28;20211;-69
2023/05/01 01:55:35;;;;;;;5.90;3.77;;;;;;;5.04;72.87;101121.50;4987069;28;20211;-69
2023/05/01 01:58:03;;;;;;;5.20;4.27;;;;;;;4.97;73.05;101122.63;4986264;28;20263;-70
2023/05/01 02:00:31;;;;;;;6.77;4.87;;;;;;;4.87;73.21;101119.41;4983928;28;20207;-69
2023/05/01 02:03:00;;;;;;;7.47;4.90;;;;;;;4.79;73.25;101109.13;4980284;28;20214;-70
2023/05/01 02:05:28;;;;;;;6.90;4.73;;;;;;;4.76;73.98;101117.13;4991540;28;20238;-69
2023/05/01 02:07:57;;;;;;;8.30;4.70;;;;;;;4.74;74.19;101110.16;4982836;28;20447;-69
2023/05/01 02:10:25;;;;;;;8.97;5.80;;;;;;;4.71;74.37;101107.63;4985437;28;20227;-70
2023/05/01 02:12:54;;;;;;;7.10;5.10;;;;;;;4.70;74.40;101112.03;4986504;28;20641;-69
2023/05/01 02:15:22;;;;;;;6.50;5.07;;;;;;;4.71;75.19;101105.00;4980166;28;20200;-69
2023/05/01 02:17:50;;;;;;;8.47;5.37;;;;;;;4.72;74.94;101104.06;4984089;28;20224;-70
2023/05/01 02:20:17;;;;;;;7.17;5.17;;;;;;;4.70;75.03;101101.47;4984294;28;20832;-70
2023/05/01 02:22:48;;;;;;;10.30;5.13;;;;;;;4.67;75.32;101085.75;4984916;28;20215;-70
2023/05/01 02:25:16;;;;;;;10.13;5.70;;;;;;;4.62;75.43;101090.31;4989668;28;20216;-70
2023/05/01 02:27:46;;;;;;;8.47;5.33;;;;;;;4.59;75.73;101084.28;4987284;28;20224;-70
2023/05/01 02:30:13;;;;;;;9.03;5.53;;;;;;;4.54;75.95;101080.00;4989739;28;21984;-70
2023/05/01 02:32:40;;;;;;;8.47;5.63;;;;;;;4.50;76.39;101078.38;5001649;23;20243;-69
2023/05/01 02:35:07;;;;;;;8.27;5.67;;;;;;;4.45;76.25;101075.03;5007291;28;20211;-69
2023/05/01 02:37:33;;;;;;;7.20;5.13;;;;;;;4.42;76.42;101074.25;5009680;28;20668;-69
2023/05/01 02:40:00;;;;;;;9.10;5.23;;;;;;;4.40;77.25;101068.16;5008441;28;20229;-69
2023/05/01 02:42:29;;;;;;;8.57;5.03;;;;;;;4.37;76.88;101060.34;5007409;28;20736;-69
2023/05/01 02:45:01;;;;;;;11.87;5.10;;;;;;;4.34;77.19;101061.31;5008417;28;20790;-69
2023/05/01 02:47:29;;;;;;;14.27;5.37;;;;;;;4.32;77.04;101062.25;5006140;28;20203;-69
2023/05/01 02:49:59;;;;;;;6.30;4.80;;;;;;;4.32;77.68;101056.97;5005602;28;20231;-69
2023/05/01 02:52:26;;;;;;;11.10;4.93;;;;;;;4.31;77.21;101057.91;5008023;28;20234;-69
2023/05/01 02:54:53;;;;;;;7.73;5.40;;;;;;;4.29;77.29;101049.19;5006147;28;20199;-69
2023/05/01 02:57:19;;;;;;;6.20;5.13;;;;;;;4.28;77.80;101055.38;5005867;28;20210;-69
2023/05/01 02:59:47;;;;;;;8.77;5.07;;;;;;;4.27;78.09;101045.75;5008800;28;20231;-69
2023/05/01 03:02:15;;;;;;;10.87;5.40;;;;;;;4.24;77.91;101038.78;5008899;28;20226;-69
2023/05/01 03:04:42;;;;;;;6.93;4.93;;;;;;;4.25;78.02;101042.28;5006995;28;20630;-69
2023/05/01 03:07:09;;;;;;;8.87;5.50;;;;;;;4.23;77.46;101037.06;5008390;28;20222;-69
2023/05/01 03:09:35;;;;;;;9.10;5.77;;;;;;;4.22;77.77;101040.59;5006549;28;20227;-68
2023/05/01 03:12:02;;;;;;;7.57;5.13;;;;;;;4.22;77.63;101037.09;5008268;28;20292;-68
2023/05/01 03:14:29;;;;;;;7.00;4.97;;;;;;;4.19;77.99;101031.00;5009894;28;20203;-69
2023/05/01 03:16:57;;;;;;;8.93;5.40;;;;;;;4.19;78.02;101033.66;5009087;28;20211;-70
2023/05/01 03:19:24;;;;;;;8.57;4.90;;;;;;;4.19;77.91;101033.66;5006903;28;20294;-69
2023/05/01 03:21:50;;;;;;;8.63;4.90;;;;;;;4.20;78.28;101023.97;5012173;28;20743;-69
2023/05/01 03:24:17;;;;;;;6.53;4.63;;;;;;;4.21;78.71;101030.09;5011455;28;20225;-68
2023/05/01 03:26:44;;;;;;;7.97;4.80;;;;;;;4.22;78.06;101023.91;5008883;28;20218;-69
2023/05/01 03:29:12;;;;;;;7.47;4.93;;;;;;;4.21;78.01;101023.06;5012577;28;20325;-68
2023/05/01 03:31:38;;;;;;;7.13;4.50;;;;;;;4.19;77.80;101020.47;5007618;28;20211;-70
2023/05/01 03:34:06;;;;;;;8.63;6.07;;;;;;;4.18;77.90;101020.50;5009420;28;20593;-69
2023/05/01 03:36:33;;;;;;;7.43;5.50;;;;;;;4.17;77.51;101017.00;5012676;28;20756;-69
2023/05/01 03:39:00;;;;;;;8.60;4.73;;;;;;;4.17;77.79;101016.16;5009820;28;20583;-69
2023/05/01 03:41:27;;;;;;;7.93;4.80;;;;;;;4.16;78.41;101006.50;5008814;28;20882;-67
2023/05/01 03:43:53;;;;;;;9.20;6.23;;;;;;;4.16;78.20;101004.75;5004897;28;20700;-69
2023/05/01 03:46:20;;;;;;;7.70;5.83;;;;;;;4.14;77.73;101009.19;5005868;28;20203;-70
2023/05/01 03:48:46;;;;;;;7.87;5.10;;;;;;;4.12;78.22;100997.84;5007862;28;20211;-69
2023/05/01 03:51:16;;;;;;;8.23;5.17;;;;;;;4.10;78.25;100999.69;5004982;28;20203;-69
2023/05/01 03:53:42;;;;;;;8.83;5.50;;;;;;;4.10;78.35;100991.78;5005840;28;20254;-67
2023/05/01 03:56:09;;;;;;;18.27;6.83;;;;;;;4.09;79.07;100992.69;5008276;28;20218;-71
2023/05/01 03:58:35;;;;;;;8.20;5.57;;;;;;;4.09;79.40;100991.81;5005723;28;20202;-67
2023/05/01 04:01:02;;;;;;;12.23;5.77;;;;;;;4.08;79.12;100985.69;5004698;28;20762;-69
2023/05/01 04:03:29;;;;;;;7.83;5.33;;;;;;;4.08;79.48;100984.81;5005657;28;20655;-68
2023/05/01 04:05:55;;;;;;;10.03;4.77;;;;;;;4.08;79.69;100987.47;5008717;28;20749;-68
2023/05/01 04:08:23;;;;;;;9.03;4.80;;;;;;;4.08;79.56;100985.69;5008825;28;20219;-70
2023/05/01 04:10:50;;;;;;;7.53;4.50;;;;;;;4.08;80.03;100982.19;5008890;28;20219;-68
2023/05/01 04:13:17;;;;;;;6.77;4.87;;;;;;;4.07;79.23;100981.31;5010848;28;20234;-69
2023/05/01 04:15:45;;;;;;;7.00;4.50;;;;;;;4.04;79.80;100984.03;5009850;28;20257;-68
2023/05/01 04:18:12;;;;;;;6.47;4.07;;;;;;;4.03;79.17;100986.72;5007760;28;21126;-67
2023/05/01 04:20:39;;;;;;;5.33;4.30;;;;;;;3.95;78.23;100980.81;5013481;28;20290;-70
2023/05/01 04:23:06;;;;;;;5.90;4.70;;;;;;;3.84;78.20;100973.25;5007045;28;20237;-70
2023/05/01 04:25:34;;;;;;;7.33;4.80;;;;;;;3.76;78.83;100978.75;5006707;28;20264;-69
2023/05/01 04:28:00;;;;;;;8.10;4.70;;;;;;;3.73;79.53;100975.38;5007470;28;20218;-69
2023/05/01 04:30:27;;;;;;;9.63;5.40;;;;;;;3.73;80.60;100972.72;5007153;28;20234;-70
2023/05/01 04:32:54;;;;;;;7.03;4.97;;;;;;;3.74;80.44;100969.19;5003523;28;20242;-68
2023/05/01 04:35:20;;;;;;;9.33;4.90;;;;;;;3.75;80.20;100971.78;5008995;28;20199;-69
2023/05/01 04:37:47;;;;;;;8.43;4.97;;;;;;;3.76;80.80;100970.00;5005845;28;20203;-70
2023/05/01 04:40:14;;;;;;;7.03;4.80;;;;;;;3.76;80.55;100973.47;5005223;28;20210;-68
2023/05/01 04:42:42;;;;;;;6.90;4.67;;;;;;;3.74;80.11;100961.28;5004931;28;20227;-70
2023/05/01 04:45:09;;;;;;;6.37;4.57;;;;;;;3.73;80.63;100972.72;5003525;28;20207;-70
2023/05/01 04:47:36;;;;;;;8.33;4.63;;;;;;;3.73;81.37;100968.31;5006437;28;20199;-70
2023/05/01 04:50:02;;;;;;;6.90;4.50;;;;;;;3.76;81.20;100972.66;5002574;28;20612;-67
2023/05/01 04:52:29;;;;;;;7.30;4.40;;;;;;;3.76;81.06;100970.84;5006067;28;20226;-69
2023/05/01 04:54:56;;;;;;;7.80;4.70;;;;;;;3.80;81.27;100968.97;5000040;28;20219;-68
2023/05/01 04:57:23;;;;;;;7.57;4.53;;;;;;;3.83;81.49;100969.75;5005304;28;20230;-68
2023/05/01 04:59:51;;;;;;;6.70;4.30;;;;;;;3.87;81.60;100970.53;5006107;28;20956;-67
2023/05/01 05:02:17;;;;;;;7.33;4.33;;;;;;;3.90;81.43;100964.31;5004362;28;20587;-67
2023/05/01 05:04:44;;;;;;;6.33;4.67;;;;;;;3.93;81.88;100965.09;5003640;28;20214;-69
2023/05/01 05:07:10;;;;;;;8.07;4.47;;;;;;;3.96;81.90;100962.31;5005447;28;20672;-70
2023/05/01 05:09:37;;;;;;;6.73;4.30;;;;;;;4.02;82.23;100969.19;5001205;28;20352;-69
2023/05/01 05:12:04;;;;;;;7.97;4.40;;;;;;;4.08;81.86;100966.38;5006426;28;20602;-68
2023/05/01 05:14:31;;;;;;;6.63;4.20;;;;;;;4.13;82.01;100967.94;5005298;28;20668;-68
2023/05/01 05:16:59;;;;;;;7.57;4.30;;;;;;;4.20;82.39;100971.25;5009510;28;20212;-70
2023/05/01 05:19:25;;;;;;;5.70;4.50;;;;;;;4.25;82.67;100960.56;5010497;28;20231;-68
2023/05/01 05:21:52;;;;;;;10.97;4.43;;;;;;;4.33;81.88;100964.66;5006385;28;20682;-68
2023/05/01 05:24:18;;;;;;;6.40;4.40;;;;;;;4.40;82.15;100967.97;5008560;28;20211;-69
2023/05/01 05:26:46;;;;;;;7.47;4.40;;;;;;;4.46;82.30;100957.22;5008413;28;20285;-68
2023/05/01 05:29:13;;;;;;;5.27;3.80;;;;;;;4.53;82.23;100967.50;5002861;28;20219;-69
2023/05/01 05:31:40;;;;;;;7.23;3.83;;;;;;;4.62;82.32;100957.56;5008251;28;20214;-66
2023/05/01 05:34:08;;;;;;;6.07;4.07;;;;;;;4.70;81.98;100963.44;5001816;28;20221;-68
2023/05/01 05:36:35;;;;;;;7.23;3.97;;;;;;;4.78;81.42;100967.53;5005638;28;20203;-68
2023/05/01 05:39:01;;;;;;;7.30;3.93;;;;;;;4.86;81.28;100962.84;5007769;28;20345;-68
2023/05/01 05:41:28;;;;;;;4.70;3.80;;;;;;;4.98;80.96;100966.00;5005606;28;20230;-67
2023/05/01 05:43:55;;;;;;;7.47;4.87;;;;;;;5.09;80.99;100966.47;5009669;28;20280;-68
2023/05/01 05:46:22;;;;;;;5.83;3.87;;;;;;;5.23;81.18;100961.53;5005577;28;20585;-69
2023/05/01 05:48:48;;;;;;;8.17;3.70;;;;;;;5.37;80.95;100954.00;5004550;28;20202;-68
2023/05/01 05:51:16;;;;;;;6.10;3.90;;;;;;;5.53;80.24;100955.13;5002412;28;20609;-67
2023/05/01 05:53:42;;;;;;;8.07;4.03;;;;;;;5.70;80.34;100945.72;4997287;28;20233;-70
2023/05/01 05:56:09;;;;;;;6.30;3.80;;;;;;;5.86;79.38;100952.97;5007122;28;20211;-69
2023/05/01 05:58:36;;;;;;;4.93;3.57;;;;;;;6.00;78.69;100952.47;5004660;28;20207;-70
2023/05/01 06:01:03;;;;;;;5.10;3.60;;;;;;;6.12;77.78;100949.31;5004509;28;20330;-69
2023/05/01 06:03:29;;;;;;;6.03;3.80;;;;;;;6.22;76.33;100945.41;5006457;28;20226;-70
2023/05/01 06:05:56;;;;;;;6.43;3.97;;;;;;;6.34;75.58;100945.81;5005504;28;20600;-67
2023/05/01 06:08:24;;;;;;;5.40;3.93;;;;;;;6.46;74.84;100937.34;5002483;28;20203;-70
2023/05/01 06:10:51;;;;;;;8.03;4.37;;;;;;;6.59;74.96;100933.28;5005046;28;20615;-69
2023/05/01 06:13:17;;;;;;;11.43;4.90;;;;;;;6.70;74.60;100930.16;5004699;28;20288;-69
2023/05/01 06:15:44;;;;;;;9.90;4.40;;;;;;;6.82;74.67;100926.97;5007411;28;20217;-67
2023/05/01 06:18:11;;;;;;;6.30;4.10;;;;;;;6.95;74.41;100934.34;5004749;28;20206;-69
2023/05/01 06:20:38;;;;;;;6.57;4.40;;;;;;;7.08;74.54;100933.81;5003712;28;20273;-68
2023/05/01 06:23:04;;;;;;;6.67;3.87;;;;;;;7.21;73.41;100937.59;5002358;28;20747;-68
2023/05/01 06:25:32;;;;;;;6.77;3.90;;;;;;;7.34;73.32;100936.16;5004629;28;20299;-67
2023/05/01 06:27:59;;;;;;;7.10;3.93;;;;;;;7.49;73.31;100931.94;5003188;28;20211;-68
2023/05/01 06:30:25;;;;;;;7.07;4.00;;;;;;;7.65;72.74;100927.63;5004726;28;20229;-67
2023/05/01 06:32:52;;;;;;;6.90;3.53;;;;;;;7.80;71.77;100929.56;5003012;28;20239;-67
2023/05/01 06:35:19;;;;;;;5.97;3.73;;;;;;;7.93;70.73;100920.09;5004863;28;20210;-67
2023/05/01 06:37:46;;;;;;;5.50;3.53;;;;;;;8.06;70.44;100920.34;5001759;28;20702;-71
2023/05/01 06:40:12;;;;;;;8.13;4.10;;;;;;;8.23;70.71;100912.44;4999959;28;20241;-68
2023/05/01 06:42:41;;;;;;;7.60;4.00;;;;;;;8.42;69.66;100911.56;5006742;28;20222;-68
2023/05/01 06:45:08;;;;;;;7.53;3.90;;;;;;;8.63;69.98;100913.09;4997455;28;20278;-70
2023/05/01 06:47:34;;;;;;;5.60;4.23;;;;;;;8.84;69.45;100912.00;5007080;28;20217;-69
2023/05/01 06:50:01;;;;;;;7.33;4.50;;;;;;;9.03;69.30;100909.25;5005172;28;20213;-70
2023/05/01 06:52:30;;;;;;;7.70;4.00;;;;;;;9.16;67.48;100904.13;5004771;28;20244;-68
2023/05/01 06:54:56;;;;;;;5.23;4.30;;;;;;;9.27;66.83;100904.44;5004122;28;20238;-70
2023/05/01 06:57:23;;;;;;;5.30;3.80;;;;;;;9.36;66.03;100906.56;5003809;28;20206;-69
2023/05/01 06:59:51;;;;;;;5.67;3.73;;;;;;;9.46;65.58;100902.50;5004355;28;20214;-70
2023/05/01 07:02:17;;;;;;;8.20;3.80;;;;;;;9.56;65.02;100897.50;4999844;28;20237;-69
2023/05/01 07:04:44;;;;;;;5.60;3.60;;;;;;;9.66;65.26;100899.59;4999498;28;20239;-70
2023/05/01 07:07:10;;;;;;;7.50;3.73;;;;;;;9.81;65.11;100895.22;5004976;28;20207;-67
2023/05/01 07:09:37;;;;;;;5.87;3.67;;;;;;;9.97;64.31;100895.22;4999854;28;20276;-68
2023/05/01 07:12:05;;;;;;;8.37;4.43;;;;;;;10.13;63.99;100890.72;5005250;28;20737;-69
2023/05/01 07:14:31;;;;;;;6.80;3.80;;;;;;;10.28;63.13;100884.53;4997103;28;20214;-70
2023/05/01 07:16:59;;;;;;;6.27;3.90;;;;;;;10.46;63.25;100884.41;5005585;28;20209;-69
2023/05/01 07:19:25;;;;;;;6.00;4.00;;;;;;;10.58;62.50;100881.00;5004709;28;20205;-69
2023/05/01 07:21:52;;;;;;;5.37;3.93;;;;;;;10.69;61.43;100882.09;5008185;28;20613;-69
2023/05/01 07:24:19;;;;;;;5.97;3.93;;;;;;;10.80;61.74;100876.09;5006928;28;20296;-68
2023/05/01 07:26:45;;;;;;;9.67;4.13;;;;;;;10.92;61.61;100872.72;5008629;28;20219;-70
2023/05/01 07:29:12;;;;;;;8.33;4.03;;;;;;;11.04;61.45;100871.09;5009932;28;20208;-68
2023/05/01 07:31:40;;;;;;;5.23;4.10;;;;;;;11.18;61.72;100868.41;5008152;28;20201;-70
2023/05/01 07:34:08;;;;;;;4.03;3.40;;;;;;;11.33;61.40;100871.94;5009495;28;20229;-70
2023/05/01 07:36:35;;;;;;;5.53;4.23;;;;;;;11.46;60.96;100865.72;5008447;28;20215;-70
2023/05/01 07:39:01;;;;;;;5.23;3.30;;;;;;;11.59;61.14;100873.81;5008473;28;20864;-70
2023/05/01 07:41:28;;;;;;;6.40;3.43;;;;;;;11.74;60.60;100861.28;5008991;28;20230;-70
2023/05/01 07:43:54;;;;;;;3.80;2.80;;;;;;;11.86;59.35;100852.50;5010371;28;20237;-69
2023/05/01 07:46:21;;;;;;;4.43;2.93;;;;;;;11.94;57.66;100858.22;5003707;28;20207;-70
2023/05/01 07:48:48;;;;;;;6.20;2.80;;;;;;;12.05;57.02;100850.34;5008424;28;20209;-70
2023/05/01 07:51:17;;;;;;;4.40;2.93;;;;;;;12.19;55.78;100841.41;4998511;28;20209;-67
2023/05/01 07:53:45;;;;;;;5.73;2.73;;;;;;;12.29;55.16;100844.34;5003250;28;20237;-69
2023/05/01 07:56:15;;;;;;;6.10;2.90;;;;;;;12.43;53.86;100841.59;5011818;28;20298;-70
2023/05/01 07:58:42;;;;;;;3.40;2.30;;;;;;;12.57;53.14;100840.63;5008963;28;20632;-71
2023/05/01 08:01:09;;;;;;;6.83;2.90;;;;;;;12.73;52.10;100842.16;5002601;28;20230;-68
2023/05/01 08:03:35;;;;;;;4.43;2.20;;;;;;;12.85;51.22;100840.47;5002855;28;20231;-70
2023/05/01 08:06:02;;;;;;;4.33;2.37;;;;;;;12.97;50.08;100836.91;5005887;28;20266;-70
2023/05/01 08:08:29;;;;;;;3.53;2.83;;;;;;;13.09;49.24;100825.34;5002272;28;20204;-70
2023/05/01 08:10:56;;;;;;;3.73;2.20;;;;;;;13.17;48.65;100831.06;5007475;28;20214;-70
2023/05/01 08:13:23;;;;;;;2.97;2.10;;;;;;;13.28;47.84;100827.59;5010571;28;20223;-70
2023/05/01 08:15:49;;;;;;;3.70;2.23;;;;;;;13.40;48.02;100825.88;5007158;28;20203;-69
2023/05/01 08:18:19;;;;;;;5.43;3.10;;;;;;;13.54;48.04;100817.69;5005612;28;20830;-68
2023/05/01 08:20:46;;;;;;;3.07;2.10;;;;;;;13.70;48.38;100815.59;5004443;28;20711;-69
2023/05/01 08:23:13;;;;;;;4.33;2.33;;;;;;;13.88;47.19;100813.38;5008004;28;20250;-68
2023/05/01 08:25:42;;;;;;;6.17;2.70;;;;;;;14.04;47.30;100807.72;5002590;28;20207;-70
2023/05/01 08:28:10;;;;;;;5.20;2.43;;;;;;;14.21;46.76;100810.00;5005514;28;20932;-70
2023/05/01 08:30:36;;;;;;;4.37;2.90;;;;;;;14.37;46.80;100802.50;5003053;28;20710;-70
2023/05/01 08:33:03;;;;;;;7.50;2.60;;;;;;;14.55;46.41;100808.28;5025746;22;20230;-69
2023/05/01 08:35:30;;;;;;;4.40;2.70;;;;;;;14.72;45.98;100804.31;5020889;28;20633;-69
2023/05/01 08:37:56;;;;;;;4.70;2.80;;;;;;;14.89;45.04;100803.81;5023230;28;20261;-70
2023/05/01 08:40:23;;;;;;;5.43;2.90;;;;;;;15.04;44.49;100799.97;5024992;28;20202;-70
2023/05/01 08:42:52;;;;;;;4.33;2.90;;;;;;;15.19;44.35;100808.59;5021713;28;20225;-70
2023/05/01 08:45:19;;;;;;;4.93;2.67;;;;;;;15.35;44.05;100794.81;5017236;28;20203;-70
2023/05/01 08:47:46;;;;;;;4.90;2.70;;;;;;;15.51;43.86;100795.25;5030743;28;20209;-69
2023/05/01 08:50:13;;;;;;;6.37;3.20;;;;;;;15.67;43.56;100790.38;5023559;28;20231;-69
2023/05/01 08:52:41;;;;;;;5.03;2.63;;;;;;;15.80;43.83;100793.75;5020862;28;20215;-69
2023/05/01 08:55:11;;;;;;;5.27;3.47;;;;;;;15.99;43.71;100790.38;5020048;28;20499;-70
2023/05/01 08:57:39;;;;;;;4.47;3.17;;;;;;;16.13;43.03;100786.53;5020567;28;20216;-70
2023/05/01 09:00:14;;;;;;;4.17;2.90;;;;;;;16.22;42.73;100777.69;5023967;28;20209;-69
2023/05/01 09:02:43;;;;;;;4.77;3.10;;;;;;;16.31;41.93;100779.59;5029473;28;20223;-69
2023/05/01 09:05:10;;;;;;;4.83;2.90;;;;;;;16.37;42.19;100781.78;5017955;28;20650;-70
2023/05/01 09:07:37;;;;;;;4.77;2.87;;;;;;;16.43;42.08;100778.56;5027657;28;20213;-70
2023/05/01 09:10:04;;;;;;;5.43;3.33;;;;;;;16.53;41.73;100774.09;5021939;28;20224;-69
2023/05/01 09:12:34;;;;;;;5.33;3.03;;;;;;;16.61;41.25;100773.44;5023928;28;20211;-70
2023/05/01 09:15:02;;;;;;;4.03;3.20;;;;;;;16.71;41.01;100770.81;5023879;28;20210;-69
2023/05/01 09:17:32;;;;;;;3.87;2.70;;;;;;;16.77;41.01;100773.84;5023057;28;20601;-69
2023/05/01 09:20:01;;;;;;;5.43;3.30;;;;;;;16.85;41.41;100765.09;5026127;28;20204;-69
2023/05/01 09:22:30;;;;;;;5.37;3.20;;;;;;;16.92;40.64;100768.94;5017216;28;20226;-69
2023/05/01 09:24:56;;;;;;;5.40;3.17;;;;;;;16.92;40.10;100766.25;5021137;28;20204;-69
2023/05/01 09:27:23;;;;;;;4.23;2.90;;;;;;;16.96;40.69;100759.63;5018768;28;20304;-69
2023/05/01 09:29:49;;;;;;;4.70;3.40;;;;;;;17.00;40.56;100756.53;5018352;28;20293;-69
2023/05/01 09:32:19;;;;;;;3.73;3.13;;;;;;;17.06;40.65;100757.81;5022204;28;20200;-70
2023/05/01 09:34:47;;;;;;;4.97;3.50;;;;;;;17.12;40.54;100749.19;5034288;28;20240;-70
2023/05/01 09:37:27;;;;;;;3.93;3.03;;;;;;;17.20;40.73;100738.59;5028848;28;20273;-70
2023/05/01 09:40:04;;;;;;;5.17;2.90;;;;;;;17.31;40.62;100738.50;5025539;28;20339;-67
2023/05/01 09:42:31;;;;;;;4.57;3.30;;;;;;;17.38;40.21;100748.72;5027723;28;20226;-70
2023/05/01 09:44:59;;;;;;;4.77;3.40;;;;;;;17.41;40.21;100732.25;5032973;28;20569;-69
2023/05/01 09:47:26;;;;;;;6.63;3.40;;;;;;;17.46;40.46;100730.00;5022991;28;20655;-70
2023/05/01 09:49:56;;;;;;;4.83;3.67;;;;;;;17.54;40.66;100735.56;5026146;28;20286;-69
2023/05/01 09:52:22;;;;;;;5.40;3.20;;;;;;;17.61;40.55;100723.22;5027021;28;20294;-70
2023/05/01 09:54:49;;;;;;;6.13;3.30;;;;;;;17.71;41.15;100729.53;5014583;28;20210;-69
2023/05/01 09:57:15;;;;;;;5.80;3.13;;;;;;;17.85;41.04;100723.72;5023686;28;20207;-69
2023/05/01 09:59:41;;;;;;;3.80;3.40;;;;;;;17.96;40.48;100722.69;5022109;28;20590;-69
2023/05/01 10:02:28;;;;;;;3.90;2.93;;;;;;;18.09;40.17;100725.97;5021342;28;20601;-70
2023/05/01 10:04:59;;;;;;;4.60;3.30;;;;;;;18.17;39.75;100726.09;5017434;28;20240;-69
2023/05/01 10:07:26;;;;;;;3.43;2.77;;;;;;;18.21;38.85;100719.41;5021961;28;20241;-69
2023/05/01 10:09:54;;;;;;;3.57;2.93;;;;;;;18.25;38.66;100722.69;5027788;28;20631;-69
2023/05/01 10:12:25;;;;;;;4.23;3.47;;;;;;;18.33;38.06;100720.09;5020775;28;20252;-68
2023/05/01 10:14:52;;;;;;;4.83;3.00;;;;;;;18.41;38.35;100716.69;5023017;28;20244;-70
2023/05/01 10:17:19;;;;;;;4.70;3.20;;;;;;;18.51;38.14;100718.34;5013539;28;20221;-69
2023/05/01 10:19:46;;;;;;;3.73;2.90;;;;;;;18.62;37.92;100711.97;5023237;28;20279;-69
2023/05/01 10:22:15;;;;;;;3.43;2.70;;;;;;;18.75;38.44;100706.25;5020422;28;20226;-69
2023/05/01 10:24:42;;;;;;;4.40;3.40;;;;;;;18.84;38.57;100703.47;5022072;28;20253;-69
2023/05/01 10:27:09;;;;;;;3.97;3.07;;;;;;;18.93;38.19;100705.31;5016558;28;20202;-69
2023/05/01 10:29:37;;;;;;;4.60;2.83;;;;;;;19.03;38.12;100702.53;5021437;28;20217;-69
2023/05/01 10:32:06;;;;;;;3.90;3.10;;;;;;;19.12;37.90;100698.94;5023232;28;20329;-70
2023/05/01 10:34:37;;;;;;;4.23;3.23;;;;;;;19.21;37.56;100702.59;5020568;28;20534;-69
2023/05/01 10:37:11;;;;;;;3.83;3.37;;;;;;;19.29;38.01;100698.13;5014027;28;20225;-70
2023/05/01 10:39:39;;;;;;;3.43;3.00;;;;;;;19.42;37.78;100695.06;5022177;28;20215;-69
2023/05/01 10:42:09;;;;;;;4.43;2.77;;;;;;;19.50;37.45;100688.94;5016205;28;20696;-69
2023/05/01 10:44:37;;;;;;;4.55;2.80;;;;;;;19.59;37.08;100680.75;5026296;28;20326;-69
2023/05/01 10:47:49;;;;;;;3.13;2.70;;;;;;;19.66;36.93;100684.53;5026162;28;20212;-69
2023/05/01 10:50:16;;;;;;;4.93;3.28;;;;;;;19.77;37.28;100680.72;4996464;28;20202;-69
2023/05/01 10:53:25;;;;;;;3.58;3.03;;;;;;;19.88;37.32;100679.66;5024092;28;20690;-69
2023/05/01 10:55:54;;;;;;;4.28;3.22;;;;;;;20.00;37.32;100671.13;4998130;28;20582;-69
2023/05/01 10:58:54;;;;;;;6.63;2.60;;;;;;;20.11;36.66;100675.44;5026184;28;20202;-70
2023/05/01 11:01:28;;;;;;;2.58;2.10;;;;;;;20.18;36.10;100673.81;5023544;28;20324;-69
2023/05/01 11:03:55;;;;;;;4.35;2.50;;;;;;;20.22;35.89;100671.63;5023690;28;20225;-70
2023/05/01 11:06:22;;;;;;;2.60;2.40;;;;;;;20.28;35.79;100663.72;5029707;28;20260;-70
2023/05/01 11:08:49;;;;;;;6.40;3.30;;;;;;;20.33;35.71;100660.53;5023393;28;20622;-69
2023/05/01 11:11:51;;;;;;;4.05;2.38;;;;;;;20.38;35.93;100659.09;5030400;28;20198;-69
2023/05/01 11:14:18;;;;;;;4.35;2.53;;;;;;;20.42;35.98;100656.91;5031565;28;20235;-69
2023/05/01 11:16:48;;;;;;;3.75;2.38;;;;;;;20.47;36.06;100659.13;5025448;28;20202;-70
2023/05/01 11:19:49;;;;;;;3.38;2.45;;;;;;;20.54;35.74;100650.22;5028802;28;20214;-70
2023/05/01 11:22:16;;;;;;;2.70;2.22;;;;;;;20.61;35.59;100647.69;5015444;28;20241;-69
2023/05/01 11:24:43;;;;;;;3.90;2.63;;;;;;;20.73;35.49;100654.53;5028615;28;20225;-69
2023/05/01 11:27:15;;;;;;;4.68;2.50;;;;;;;20.79;35.33;100641.19;5027479;28;20234;-70
2023/05/01 11:29:45;;;;;;;4.05;2.42;;;;;;;20.85;35.71;100645.09;5026478;28;20208;-70
2023/05/01 11:32:16;;;;;;;5.20;2.75;;;;;;;20.92;35.26;100651.56;5029330;28;20283;-68
2023/05/01 11:34:43;;;;;;;3.60;2.55;;;;;;;20.96;35.25;100652.09;5029493;28;20669;-70
2023/05/01 11:37:09;;;;;;;4.05;2.28;;;;;;;20.97;35.05;100645.63;5029341;28;20202;-69